Time;durP1;ratioP1;P1;durP2;ratioP2;P2;SDS_P1;SDS_P2;PMS_P1;PMS_P2;Temp;Humidity;BMP_temperature;BMP_pressure;BME280_temperature;BME280_humidity;BME280_pressure;Samples;Min_cycle;Max_cycle;Signal;HPM_P1;HPM_P2
2022/03/07 00:01:25;;;;;;;24.27;14.43;;;;;;;;;;5078301;28;20217;-55
2022/03/07 00:03:54;;;;;;;25.60;14.30;;;;;;;;;;5078460;28;20240;-57
2022/03/07 00:06:22;;;;;;;25.20;14.20;;;;;;;;;;5078228;28;20254;-57
2022/03/07 00:08:50;;;;;;;28.83;13.87;;;;;;;;;;5078064;28;20203;-56
2022/03/07 00:11:17;;;;;;;24.13;13.23;;;;;;;;;;5078629;28;20290;-57
2022/03/07 00:13:45;;;;;;;20.90;12.13;;;;;;;;;;5078548;28;20707;-55
2022/03/07 00:16:12;;;;;;;24.57;11.63;;;;;;;;;;5078118;28;20215;-55
2022/03/07 00:18:40;;;;;;;18.13;12.00;;;;;;;;;;5077952;28;20242;-57
2022/03/07 00:21:08;;;;;;;22.33;12.03;;;;;;;;;;5077236;28;20206;-56
2022/03/07 00:23:35;;;;;;;20.37;12.37;;;;;;;;;;5077876;28;20239;-56
2022/03/07 00:26:04;;;;;;;20.47;12.00;;;;;;;;;;5078015;28;20590;-56
2022/03/07 00:28:31;;;;;;;23.27;12.80;;;;;;;;;;5077010;28;20433;-54
2022/03/07 00:30:59;;;;;;;23.87;12.67;;;;;;;;;;5077887;28;20263;-59
2022/03/07 00:33:26;;;;;;;21.23;13.63;;;;;;;;;;5077812;28;20600;-59
2022/03/07 00:35:54;;;;;;;20.37;11.87;;;;;;;;;;5077913;28;20200;-58
2022/03/07 00:38:21;;;;;;;20.07;11.27;;;;;;;;;;5077512;28;20237;-58
2022/03/07 00:40:49;;;;;;;23.87;12.87;;;;;;;;;;5077170;28;20195;-58
2022/03/07 00:43:16;;;;;;;21.83;12.43;;;;;;;;;;5076905;28;20199;-59
2022/03/07 00:45:43;;;;;;;23.40;13.07;;;;;;;;;;5077469;28;20252;-59
2022/03/07 00:48:11;;;;;;;22.23;12.87;;;;;;;;;;5077454;28;20624;-58
2022/03/07 00:50:43;;;;;;;25.77;12.10;;;;;;;;;;5077369;28;20203;-59
2022/03/07 00:53:12;;;;;;;21.83;11.53;;;;;;;;;;5077593;28;20223;-55
2022/03/07 00:55:39;;;;;;;21.43;12.23;;;;;;;;;;5077348;28;20219;-56
2022/03/07 00:58:09;;;;;;;21.10;11.83;;;;;;;;;;5076348;28;20238;-59
2022/03/07 01:00:37;;;;;;;23.63;13.63;;;;;;;;;;5076318;28;20207;-59
2022/03/07 01:03:07;;;;;;;22.20;12.90;;;;;;;;;;5076274;28;20630;-59
2022/03/07 01:05:34;;;;;;;22.00;12.37;;;;;;;;;;5076393;28;20593;-58
2022/03/07 01:08:02;;;;;;;23.10;13.27;;;;;;;;;;5076176;28;20312;-58
2022/03/07 01:10:29;;;;;;;20.90;12.23;;;;;;;;;;5076949;28;20260;-58
2022/03/07 01:12:56;;;;;;;23.43;11.90;;;;;;;;;;5077391;28;20203;-59
2022/03/07 01:15:24;;;;;;;25.67;12.80;;;;;;;;;;5077048;28;20242;-57
2022/03/07 01:17:54;;;;;;;23.00;13.27;;;;;;;;;;5077135;28;20239;-58
2022/03/07 01:20:21;;;;;;;23.70;13.17;;;;;;;;;;5076137;28;20203;-57
2022/03/07 01:22:49;;;;;;;22.60;12.20;;;;;;;;;;5076921;28;20261;-58
2022/03/07 01:25:16;;;;;;;25.30;12.77;;;;;;;;;;5076699;28;20659;-59
2022/03/07 01:27:43;;;;;;;20.70;13.03;;;;;;;;;;5076741;28;20227;-57
2022/03/07 01:30:11;;;;;;;26.27;13.70;;;;;;;;;;5075979;28;20211;-58
2022/03/07 01:32:38;;;;;;;22.60;13.67;;;;;;;;;;5075792;28;20242;-58
2022/03/07 01:35:06;;;;;;;25.23;13.13;;;;;;;;;;5076836;28;20208;-57
2022/03/07 01:37:34;;;;;;;29.97;14.80;;;;;;;;;;5076949;28;20203;-59
2022/03/07 01:40:01;;;;;;;23.63;13.90;;;;;;;;;;5076632;28;20203;-57
2022/03/07 01:42:28;;;;;;;24.53;14.30;;;;;;;;;;5076424;28;20233;-58
2022/03/07 01:45:27;;;;;;;26.90;14.17;;;;;;;;;;5075480;28;20199;-59
2022/03/07 01:47:54;;;;;;;24.20;14.43;;;;;;;;;;5037864;28;20227;-58
2022/03/07 01:50:21;;;;;;;23.27;13.67;;;;;;;;;;5038226;28;20595;-57
2022/03/07 01:52:53;;;;;;;24.57;14.30;;;;;;;;;;5054321;28;20228;-59
2022/03/07 01:55:21;;;;;;;26.47;15.00;;;;;;;;;;5022140;28;20235;-58
2022/03/07 01:57:53;;;;;;;27.70;14.97;;;;;;;;;;5054530;28;20228;-58
2022/03/07 02:00:23;;;;;;;27.43;14.77;;;;;;;;;;5054503;28;20637;-58
2022/03/07 02:02:51;;;;;;;24.23;13.73;;;;;;;;;;5054445;28;20313;-57
2022/03/07 02:05:27;;;;;;;28.57;14.73;;;;;;;;;;5037681;28;20569;-56
2022/03/07 02:08:00;;;;;;;27.80;15.83;;;;;;;;;;5038206;28;20661;-55
2022/03/07 02:10:35;;;;;;;28.03;14.57;;;;;;;;;;5037651;28;20291;-59
2022/03/07 02:13:16;;;;;;;28.33;15.57;;;;;;;;;;5070947;28;20270;-58
2022/03/07 02:15:55;;;;;;;29.33;14.57;;;;;;;;;;5053866;28;20289;-60
2022/03/07 02:18:29;;;;;;;32.90;16.50;;;;;;;;;;5070822;28;20234;-58
2022/03/07 02:21:10;;;;;;;29.93;16.80;;;;;;;;;;5037483;28;20207;-56
2022/03/07 02:23:48;;;;;;;30.60;16.20;;;;;;;;;;5060120;28;20233;-59
2022/03/07 02:26:17;;;;;;;30.97;16.60;;;;;;;;;;5074946;28;20274;-58
2022/03/07 02:28:46;;;;;;;26.60;16.07;;;;;;;;;;5075057;28;20223;-59
2022/03/07 02:31:18;;;;;;;32.80;16.27;;;;;;;;;;5074779;28;20257;-59
2022/03/07 02:33:47;;;;;;;28.97;16.10;;;;;;;;;;5074798;28;20235;-58
2022/03/07 02:36:17;;;;;;;27.80;16.23;;;;;;;;;;5074746;28;20268;-59
2022/03/07 02:38:45;;;;;;;30.07;16.63;;;;;;;;;;5074547;28;20675;-58
2022/03/07 02:41:12;;;;;;;29.90;16.07;;;;;;;;;;5075251;28;20199;-57
2022/03/07 02:43:44;;;;;;;32.60;16.13;;;;;;;;;;5058641;28;20231;-58
2022/03/07 02:46:11;;;;;;;33.50;15.77;;;;;;;;;;5074340;28;20256;-58
2022/03/07 02:48:40;;;;;;;28.77;15.20;;;;;;;;;;5075318;28;20226;-59
2022/03/07 02:51:07;;;;;;;26.53;15.33;;;;;;;;;;5074356;28;20211;-59
2022/03/07 02:53:35;;;;;;;27.43;15.63;;;;;;;;;;5074120;28;20257;-59
2022/03/07 02:56:02;;;;;;;28.77;15.37;;;;;;;;;;5074862;28;20223;-59
2022/03/07 02:58:29;;;;;;;25.63;15.03;;;;;;;;;;5074980;28;20229;-59
2022/03/07 03:00:56;;;;;;;26.83;15.27;;;;;;;;;;5075101;28;20198;-59
2022/03/07 03:03:23;;;;;;;22.80;13.27;;;;;;;;;;5075279;28;20226;-58
2022/03/07 03:05:54;;;;;;;24.90;14.40;;;;;;;;;;5075358;28;20207;-57
2022/03/07 03:08:22;;;;;;;24.50;14.87;;;;;;;;;;5075205;28;20226;-56
2022/03/07 03:10:50;;;;;;;27.10;14.50;;;;;;;;;;5075012;28;20223;-58
2022/03/07 03:13:20;;;;;;;23.47;14.33;;;;;;;;;;5074885;28;20214;-58
2022/03/07 03:15:47;;;;;;;29.37;15.20;;;;;;;;;;5074880;28;20223;-59
2022/03/07 03:18:15;;;;;;;28.90;16.07;;;;;;;;;;5074598;28;20207;-58
2022/03/07 03:20:43;;;;;;;26.20;15.10;;;;;;;;;;5074612;28;20196;-58
2022/03/07 03:23:10;;;;;;;26.53;15.33;;;;;;;;;;5074826;28;20296;-58
2022/03/07 03:25:37;;;;;;;27.20;15.03;;;;;;;;;;5074843;28;20226;-58
2022/03/07 03:28:05;;;;;;;27.47;15.00;;;;;;;;;;5074907;28;20223;-57
2022/03/07 03:30:32;;;;;;;26.70;13.87;;;;;;;;;;5074789;28;20226;-58
2022/03/07 03:33:00;;;;;;;26.40;14.57;;;;;;;;;;5074065;28;20264;-59
2022/03/07 03:35:27;;;;;;;23.20;13.73;;;;;;;;;;5074761;28;20231;-59
2022/03/07 03:37:57;;;;;;;27.27;14.23;;;;;;;;;;5075086;28;20266;-59
2022/03/07 03:40:24;;;;;;;29.27;14.47;;;;;;;;;;5074914;28;20625;-57
2022/03/07 03:42:51;;;;;;;28.07;13.67;;;;;;;;;;5074624;28;20726;-58
2022/03/07 03:45:18;;;;;;;22.40;13.30;;;;;;;;;;5074312;28;20214;-58
2022/03/07 03:47:46;;;;;;;22.63;13.27;;;;;;;;;;5074684;28;20284;-59
2022/03/07 03:50:14;;;;;;;22.77;12.17;;;;;;;;;;5074533;28;20288;-59
2022/03/07 03:52:42;;;;;;;22.30;12.67;;;;;;;;;;5074470;28;20688;-59
2022/03/07 03:55:11;;;;;;;22.73;12.27;;;;;;;;;;5074401;28;20219;-58
2022/03/07 03:57:39;;;;;;;22.03;12.43;;;;;;;;;;5074305;28;20237;-60
2022/03/07 04:00:09;;;;;;;25.27;12.50;;;;;;;;;;5074250;28;20195;-57
2022/03/07 04:02:42;;;;;;;23.67;13.10;;;;;;;;;;5074845;28;20537;-59
2022/03/07 04:05:14;;;;;;;24.83;12.70;;;;;;;;;;5107192;28;20207;-58
2022/03/07 04:07:42;;;;;;;24.10;12.03;;;;;;;;;;5074279;28;20226;-58
2022/03/07 04:10:10;;;;;;;24.07;12.53;;;;;;;;;;5074169;28;20203;-59
2022/03/07 04:12:37;;;;;;;23.70;12.00;;;;;;;;;;5074688;28;20227;-59
2022/03/07 04:15:05;;;;;;;22.47;12.43;;;;;;;;;;5074085;28;20750;-59
2022/03/07 04:17:32;;;;;;;20.97;12.57;;;;;;;;;;5074234;28;20655;-59
2022/03/07 04:19:59;;;;;;;25.93;13.60;;;;;;;;;;5074241;28;20217;-59
2022/03/07 04:22:27;;;;;;;22.60;12.13;;;;;;;;;;5074229;28;20215;-59
2022/03/07 04:24:53;;;;;;;21.20;11.73;;;;;;;;;;5074041;28;20207;-58
2022/03/07 04:27:21;;;;;;;17.47;10.63;;;;;;;;;;5074222;28;20234;-59
2022/03/07 04:29:49;;;;;;;23.47;12.17;;;;;;;;;;5076876;28;20200;-59
2022/03/07 04:32:16;;;;;;;22.70;11.67;;;;;;;;;;5082942;28;20725;-59
2022/03/07 04:34:43;;;;;;;28.97;15.57;;;;;;;;;;5073702;28;20239;-55
2022/03/07 04:37:11;;;;;;;21.23;13.10;;;;;;;;;;5073764;28;20226;-60
2022/03/07 04:39:38;;;;;;;25.50;12.50;;;;;;;;;;5073695;28;20231;-57
2022/03/07 04:42:05;;;;;;;19.87;12.80;;;;;;;;;;5073605;28;20203;-58
2022/03/07 04:44:32;;;;;;;22.70;12.30;;;;;;;;;;5076203;28;20226;-58
2022/03/07 04:47:00;;;;;;;23.57;11.90;;;;;;;;;;5077258;28;20688;-59
2022/03/07 04:49:27;;;;;;;20.73;12.23;;;;;;;;;;5077100;28;20234;-60
2022/03/07 04:51:54;;;;;;;22.13;12.47;;;;;;;;;;5077361;28;20305;-57
2022/03/07 04:54:21;;;;;;;18.30;11.63;;;;;;;;;;5077028;28;20207;-57
2022/03/07 04:56:51;;;;;;;21.37;11.03;;;;;;;;;;5076884;28;20369;-58
2022/03/07 04:59:18;;;;;;;18.97;11.20;;;;;;;;;;5077065;28;20644;-58
2022/03/07 05:01:46;;;;;;;20.07;10.80;;;;;;;;;;5077048;28;20241;-59
2022/03/07 05:04:13;;;;;;;17.30;10.73;;;;;;;;;;5077060;28;20214;-59
2022/03/07 05:06:40;;;;;;;20.10;10.60;;;;;;;;;;5083749;28;20265;-60
2022/03/07 05:09:07;;;;;;;18.70;10.23;;;;;;;;;;5096374;28;20253;-57
2022/03/07 05:11:35;;;;;;;14.90;9.40;;;;;;;;;;5095849;28;20276;-58
2022/03/07 05:14:02;;;;;;;18.00;10.57;;;;;;;;;;5096357;28;20252;-57
2022/03/07 05:16:30;;;;;;;20.07;9.13;;;;;;;;;;5095786;28;20256;-57
2022/03/07 05:18:57;;;;;;;16.93;10.10;;;;;;;;;;5095933;28;20230;-61
2022/03/07 05:21:24;;;;;;;20.23;9.87;;;;;;;;;;5095322;28;20319;-59
2022/03/07 05:23:51;;;;;;;17.33;9.23;;;;;;;;;;5095015;28;20280;-53
2022/03/07 05:26:18;;;;;;;17.30;10.03;;;;;;;;;;5095903;28;20264;-57
2022/03/07 05:28:45;;;;;;;17.50;9.10;;;;;;;;;;5095010;28;20309;-56
2022/03/07 05:31:13;;;;;;;23.70;9.13;;;;;;;;;;5095648;28;20230;-57
2022/03/07 05:33:41;;;;;;;14.17;8.47;;;;;;;;;;5095472;28;20238;-60
2022/03/07 05:36:08;;;;;;;17.83;9.07;;;;;;;;;;5094892;28;20322;-59
2022/03/07 05:38:35;;;;;;;16.33;8.23;;;;;;;;;;5095661;28;20262;-51
2022/03/07 05:41:03;;;;;;;17.50;9.10;;;;;;;;;;5095891;28;20257;-49
2022/03/07 05:43:30;;;;;;;18.13;8.67;;;;;;;;;;5096260;28;20226;-50
2022/03/07 05:45:57;;;;;;;15.20;7.80;;;;;;;;;;5094517;28;20246;-51
2022/03/07 05:48:25;;;;;;;18.17;9.03;;;;;;;;;;5095452;28;20237;-52
2022/03/07 05:50:52;;;;;;;14.33;8.07;;;;;;;;;;5094997;28;20261;-53
2022/03/07 05:53:21;;;;;;;15.53;9.13;;;;;;;;;;5095849;28;20257;-56
2022/03/07 05:55:49;;;;;;;18.33;9.33;;;;;;;;;;5095099;28;20317;-51
2022/03/07 05:58:17;;;;;;;17.47;8.43;;;;;;;;;;5095262;28;20288;-56
2022/03/07 06:00:44;;;;;;;13.53;9.00;;;;;;;;;;5095306;28;20246;-54
2022/03/07 06:03:11;;;;;;;17.23;9.30;;;;;;;;;;5095487;28;20238;-60
2022/03/07 06:05:39;;;;;;;16.53;8.77;;;;;;;;;;5095121;28;20669;-55
2022/03/07 06:08:06;;;;;;;15.50;8.40;;;;;;;;;;5095385;28;20229;-51
2022/03/07 06:10:33;;;;;;;13.43;7.67;;;;;;;;;;5095312;28;20599;-48
2022/03/07 06:13:00;;;;;;;18.63;9.60;;;;;;;;;;5095069;28;20679;-50
2022/03/07 06:15:28;;;;;;;14.37;8.17;;;;;;;;;;5095352;28;20269;-52
2022/03/07 06:17:56;;;;;;;17.03;8.23;;;;;;;;;;5094870;28;20233;-52
2022/03/07 06:20:24;;;;;;;17.20;9.57;;;;;;;;;;5094816;28;20258;-51
2022/03/07 06:22:53;;;;;;;16.00;8.23;;;;;;;;;;5094604;28;20265;-49
2022/03/07 06:25:20;;;;;;;17.70;9.77;;;;;;;;;;5095248;28;20222;-49
2022/03/07 06:27:47;;;;;;;15.90;9.37;;;;;;;;;;5094764;28;20295;-50
2022/03/07 06:30:15;;;;;;;19.37;8.80;;;;;;;;;;5095099;28;20693;-50
2022/03/07 06:32:42;;;;;;;15.13;7.87;;;;;;;;;;5094303;28;20241;-50
2022/03/07 06:35:13;;;;;;;20.57;11.07;;;;;;;;;;5094599;28;20223;-48
2022/03/07 06:37:47;;;;;;;20.43;9.50;;;;;;;;;;5094488;28;20311;-53
2022/03/07 06:40:16;;;;;;;17.40;9.70;;;;;;;;;;5094782;28;20245;-48
2022/03/07 06:42:43;;;;;;;16.70;8.70;;;;;;;;;;5094644;28;20337;-48
2022/03/07 06:45:14;;;;;;;15.33;8.30;;;;;;;;;;5094620;28;20246;-49
2022/03/07 06:47:42;;;;;;;19.43;9.40;;;;;;;;;;5090241;28;20211;-51
2022/03/07 06:50:11;;;;;;;22.93;9.33;;;;;;;;;;5091510;28;20590;-49
2022/03/07 06:52:38;;;;;;;18.27;10.33;;;;;;;;;;5092944;28;20291;-50
2022/03/07 06:55:06;;;;;;;19.43;8.97;;;;;;;;;;5089829;28;20218;-49
2022/03/07 06:57:33;;;;;;;20.13;8.73;;;;;;;;;;5092861;28;20545;-54
2022/03/07 07:00:02;;;;;;;19.67;9.57;;;;;;;;;;5094316;28;20242;-49
2022/03/07 07:02:29;;;;;;;18.97;9.73;;;;;;;;;;5093846;28;20222;-49
2022/03/07 07:04:58;;;;;;;17.90;10.53;;;;;;;;;;5092832;28;20211;-48
2022/03/07 07:07:25;;;;;;;18.70;8.40;;;;;;;;;;5092219;28;20249;-48
2022/03/07 07:09:52;;;;;;;20.63;9.80;;;;;;;;;;5093496;28;20223;-48
2022/03/07 07:12:20;;;;;;;17.80;8.83;;;;;;;;;;5093746;28;20233;-52
2022/03/07 07:14:47;;;;;;;17.43;9.00;;;;;;;;;;5089837;28;20229;-53
2022/03/07 07:17:15;;;;;;;17.50;9.03;;;;;;;;;;5092990;28;20234;-48
2022/03/07 07:19:42;;;;;;;19.03;9.67;;;;;;;;;;5093572;28;20250;-51
2022/03/07 07:22:10;;;;;;;14.97;7.80;;;;;;;;;;5093805;28;20284;-49
2022/03/07 07:24:37;;;;;;;17.43;8.83;;;;;;;;;;5094243;28;20327;-49
2022/03/07 07:27:05;;;;;;;15.23;8.63;;;;;;;;;;5094045;28;20230;-50
2022/03/07 07:29:32;;;;;;;14.60;8.43;;;;;;;;;;5094325;28;20230;-52
2022/03/07 07:31:59;;;;;;;15.27;7.77;;;;;;;;;;5093427;28;20287;-49
2022/03/07 07:34:27;;;;;;;14.50;7.40;;;;;;;;;;5094041;28;20533;-51
2022/03/07 07:36:55;;;;;;;13.77;7.30;;;;;;;;;;5093157;28;20246;-50
2022/03/07 07:39:22;;;;;;;17.43;7.50;;;;;;;;;;5094004;28;20306;-48
2022/03/07 07:41:49;;;;;;;13.30;7.03;;;;;;;;;;5093683;28;20257;-49
2022/03/07 07:44:17;;;;;;;10.00;5.30;;;;;;;;;;5094003;28;20257;-49
2022/03/07 07:46:44;;;;;;;13.13;6.90;;;;;;;;;;5093916;28;20306;-48
2022/03/07 07:49:11;;;;;;;12.03;5.37;;;;;;;;;;5092091;28;20227;-50
2022/03/07 07:51:38;;;;;;;15.23;6.10;;;;;;;;;;5093972;28;20227;-50
2022/03/07 07:54:06;;;;;;;11.77;5.90;;;;;;;;;;5092398;28;20690;-50
2022/03/07 07:56:33;;;;;;;10.73;5.03;;;;;;;;;;5092204;28;20288;-54
2022/03/07 07:59:00;;;;;;;12.77;6.03;;;;;;;;;;5091064;28;20309;-48
2022/03/07 08:01:29;;;;;;;9.30;5.83;;;;;;;;;;5092451;28;20238;-52
2022/03/07 08:03:57;;;;;;;9.37;4.87;;;;;;;;;;5091918;27;20303;-50
2022/03/07 08:06:25;;;;;;;14.03;5.90;;;;;;;;;;5092670;28;20218;-49
2022/03/07 08:08:52;;;;;;;9.17;6.13;;;;;;;;;;5091955;28;20218;-53
2022/03/07 08:11:19;;;;;;;9.57;5.20;;;;;;;;;;5092412;28;20575;-55
2022/03/07 08:13:47;;;;;;;13.77;5.80;;;;;;;;;;5089358;27;20222;-54
2022/03/07 08:16:17;;;;;;;14.07;6.47;;;;;;;;;;5092485;28;20257;-51
2022/03/07 08:18:45;;;;;;;9.80;5.27;;;;;;;;;;5091833;27;20647;-51
2022/03/07 08:21:12;;;;;;;8.13;5.13;;;;;;;;;;5096277;28;20573;-51
2022/03/07 08:23:39;;;;;;;10.13;4.50;;;;;;;;;;5095696;27;20262;-54
2022/03/07 08:26:06;;;;;;;8.07;4.47;;;;;;;;;;5096440;28;20230;-51
2022/03/07 08:28:34;;;;;;;13.37;4.70;;;;;;;;;;5094514;28;20237;-54
2022/03/07 08:31:01;;;;;;;9.17;4.93;;;;;;;;;;5091692;28;20238;-51
2022/03/07 08:33:31;;;;;;;12.33;4.80;;;;;;;;;;5095232;28;20664;-51
2022/03/07 08:35:59;;;;;;;9.23;4.00;;;;;;;;;;5095890;28;20246;-54
2022/03/07 08:38:27;;;;;;;9.80;5.63;;;;;;;;;;5085276;28;20284;-51
2022/03/07 08:40:56;;;;;;;13.20;5.60;;;;;;;;;;5095947;28;20210;-49
2022/03/07 08:43:24;;;;;;;10.03;4.63;;;;;;;;;;5095608;28;20218;-54
2022/03/07 08:45:51;;;;;;;9.60;5.70;;;;;;;;;;5095414;28;20211;-53
2022/03/07 08:48:23;;;;;;;10.80;4.83;;;;;;;;;;5095222;27;20642;-50
2022/03/07 08:50:51;;;;;;;10.17;5.63;;;;;;;;;;5095856;28;20301;-49
2022/03/07 08:53:18;;;;;;;10.43;5.40;;;;;;;;;;5095460;27;20637;-52
2022/03/07 08:55:46;;;;;;;9.23;4.77;;;;;;;;;;5095106;28;20562;-53
2022/03/07 08:58:33;;;;;;;10.40;5.60;;;;;;;;;;5092786;28;20211;-57
2022/03/07 09:01:00;;;;;;;8.83;5.63;;;;;;;;;;5095362;28;20215;-55
2022/03/07 09:03:28;;;;;;;8.73;4.37;;;;;;;;;;5094803;28;20695;-55
2022/03/07 09:05:56;;;;;;;12.03;5.27;;;;;;;;;;5095014;28;20690;-50
2022/03/07 09:08:23;;;;;;;6.33;4.77;;;;;;;;;;5095085;28;20249;-52
2022/03/07 09:10:51;;;;;;;10.47;4.87;;;;;;;;;;5095302;28;20284;-51
2022/03/07 09:13:18;;;;;;;7.63;4.47;;;;;;;;;;5094965;28;20606;-54
2022/03/07 09:15:46;;;;;;;10.57;6.00;;;;;;;;;;5094965;28;20246;-48
2022/03/07 09:18:13;;;;;;;6.33;4.00;;;;;;;;;;5091025;27;20230;-49
2022/03/07 09:20:41;;;;;;;6.37;5.13;;;;;;;;;;5094815;28;20214;-52
2022/03/07 09:23:08;;;;;;;10.30;5.33;;;;;;;;;;5094500;28;20695;-49
2022/03/07 09:25:35;;;;;;;8.20;4.90;;;;;;;;;;5094757;28;20214;-50
2022/03/07 09:28:05;;;;;;;9.30;4.27;;;;;;;;;;5094456;27;20272;-53
2022/03/07 09:30:33;;;;;;;9.80;5.90;;;;;;;;;;5091732;28;20211;-52
2022/03/07 09:33:03;;;;;;;8.50;4.60;;;;;;;;;;5093223;27;20322;-49
2022/03/07 09:35:32;;;;;;;6.83;3.93;;;;;;;;;;5094912;28;20207;-48
2022/03/07 09:38:00;;;;;;;8.97;4.70;;;;;;;;;;5094318;28;20311;-52
2022/03/07 09:40:27;;;;;;;10.00;4.70;;;;;;;;;;5094560;28;20227;-54
2022/03/07 09:42:55;;;;;;;8.10;4.73;;;;;;;;;;5094699;28;20230;-52
2022/03/07 09:45:22;;;;;;;6.50;3.80;;;;;;;;;;5094496;27;20246;-49
2022/03/07 09:47:50;;;;;;;7.00;4.60;;;;;;;;;;5093772;28;20225;-51
2022/03/07 09:50:18;;;;;;;4.50;3.23;;;;;;;;;;5094309;28;20277;-50
2022/03/07 09:52:46;;;;;;;5.23;2.40;;;;;;;;;;5094399;28;20294;-49
2022/03/07 09:55:16;;;;;;;2.70;2.07;;;;;;;;;;5088875;28;20241;-51
2022/03/07 09:57:46;;;;;;;4.47;2.10;;;;;;;;;;5094219;28;20260;-54
2022/03/07 10:00:14;;;;;;;5.27;2.33;;;;;;;;;;5091267;28;20603;-50
2022/03/07 10:02:59;;;;;;;3.90;2.00;;;;;;;;;;5094321;28;20558;-50
2022/03/07 10:05:33;;;;;;;3.53;2.00;;;;;;;;;;5095318;28;20277;-48
2022/03/07 10:08:00;;;;;;;4.03;2.00;;;;;;;;;;5095542;28;20218;-49
2022/03/07 10:10:36;;;;;;;6.47;2.80;;;;;;;;;;5095354;28;20566;-47
2022/03/07 10:13:08;;;;;;;7.17;3.10;;;;;;;;;;5095424;28;20225;-51
2022/03/07 10:15:38;;;;;;;3.90;2.23;;;;;;;;;;5095013;28;20261;-50
2022/03/07 10:18:05;;;;;;;5.50;3.27;;;;;;;;;;5095486;28;20226;-49
2022/03/07 10:20:33;;;;;;;4.93;2.67;;;;;;;;;;5093341;28;20573;-54
2022/03/07 10:23:00;;;;;;;3.60;2.60;;;;;;;;;;5093987;28;20679;-51
2022/03/07 10:25:34;;;;;;;5.33;3.00;;;;;;;;;;5093224;28;20236;-52
2022/03/07 10:28:02;;;;;;;4.77;3.10;;;;;;;;;;5093721;28;20573;-52
2022/03/07 10:30:32;;;;;;;7.40;3.87;;;;;;;;;;5093382;27;20234;-51
2022/03/07 10:33:07;;;;;;;5.73;3.57;;;;;;;;;;5093135;28;20364;-51
2022/03/07 10:35:38;;;;;;;9.53;3.50;;;;;;;;;;5087283;28;20218;-49
2022/03/07 10:38:12;;;;;;;8.50;3.40;;;;;;;;;;5092844;28;20232;-51
2022/03/07 10:40:46;;;;;;;5.83;3.53;;;;;;;;;;5090290;28;20655;-54
2022/03/07 10:43:14;;;;;;;7.37;2.63;;;;;;;;;;5093372;28;20724;-48
2022/03/07 10:45:46;;;;;;;2.97;2.03;;;;;;;;;;5093887;27;20287;-48
2022/03/07 10:48:15;;;;;;;2.00;1.70;;;;;;;;;;5093574;28;20232;-48
2022/03/07 10:50:51;;;;;;;6.13;2.60;;;;;;;;;;5093453;28;20254;-49
2022/03/07 10:53:20;;;;;;;5.17;2.30;;;;;;;;;;5093544;28;20222;-48
2022/03/07 10:55:58;;;;;;;5.47;2.50;;;;;;;;;;5092813;28;20245;-48
2022/03/07 10:58:26;;;;;;;3.53;2.30;;;;;;;;;;5091298;28;20234;-49
2022/03/07 11:00:58;;;;;;;2.90;1.80;;;;;;;;;;5092480;27;20221;-51
2022/03/07 11:03:28;;;;;;;3.90;2.50;;;;;;;;;;5091104;28;20608;-49
2022/03/07 11:05:57;;;;;;;2.67;1.83;;;;;;;;;;5092716;28;20287;-49
2022/03/07 11:08:25;;;;;;;5.40;2.00;;;;;;;;;;5093314;28;20229;-49
2022/03/07 11:10:57;;;;;;;5.27;2.60;;;;;;;;;;5092260;28;20729;-49
2022/03/07 11:13:28;;;;;;;4.23;2.10;;;;;;;;;;5091295;28;20739;-48
2022/03/07 11:15:59;;;;;;;7.40;2.77;;;;;;;;;;5092205;27;20948;-52
2022/03/07 11:18:29;;;;;;;6.90;2.87;;;;;;;;;;5092922;28;20291;-49
2022/03/07 11:20:57;;;;;;;5.03;2.80;;;;;;;;;;5092113;28;20222;-47
2022/03/07 11:23:25;;;;;;;4.77;3.07;;;;;;;;;;5093848;28;20234;-49
2022/03/07 11:25:54;;;;;;;4.83;2.80;;;;;;;;;;5093469;27;20237;-48
2022/03/07 11:28:24;;;;;;;5.77;3.20;;;;;;;;;;5094587;28;20242;-48
2022/03/07 11:30:51;;;;;;;5.10;3.50;;;;;;;;;;5093683;27;20219;-48
2022/03/07 11:33:25;;;;;;;5.03;2.90;;;;;;;;;;5093940;28;20250;-50
2022/03/07 11:35:53;;;;;;;6.90;3.70;;;;;;;;;;5093755;27;20231;-51
2022/03/07 11:38:28;;;;;;;4.77;3.50;;;;;;;;;;5092593;28;20721;-54
2022/03/07 11:41:11;;;;;;;5.73;3.60;;;;;;;;;;5090216;28;20708;-53
2022/03/07 11:43:51;;;;;;;8.17;3.47;;;;;;;;;;5092207;28;20246;-50
2022/03/07 11:46:32;;;;;;;7.33;3.73;;;;;;;;;;5093522;28;20267;-53
2022/03/07 11:49:01;;;;;;;6.80;3.27;;;;;;;;;;5094076;28;20575;-49
2022/03/07 11:51:31;;;;;;;5.73;2.80;;;;;;;;;;5093897;28;20309;-50
2022/03/07 11:53:58;;;;;;;5.10;2.50;;;;;;;;;;5097314;28;20261;-51
2022/03/07 11:56:28;;;;;;;6.97;3.40;;;;;;;;;;5097545;28;20230;-48
2022/03/07 11:58:57;;;;;;;5.90;3.40;;;;;;;;;;5098066;28;20226;-52
2022/03/07 12:01:30;;;;;;;5.90;3.40;;;;;;;;;;5097700;28;20882;-54
2022/03/07 12:04:15;;;;;;;5.53;3.43;;;;;;;;;;5098147;28;20248;-50
2022/03/07 12:06:48;;;;;;;6.53;3.63;;;;;;;;;;5097919;28;20222;-53
2022/03/07 12:09:35;;;;;;;6.20;3.33;;;;;;;;;;5097021;28;20226;-50
2022/03/07 12:12:08;;;;;;;6.17;3.33;;;;;;;;;;5098048;28;20214;-50
2022/03/07 12:14:38;;;;;;;6.77;3.53;;;;;;;;;;5095399;28;20651;-51
2022/03/07 12:17:10;;;;;;;4.73;3.13;;;;;;;;;;5096051;28;20325;-52
2022/03/07 12:19:39;;;;;;;3.77;2.23;;;;;;;;;;5092733;27;20226;-54
2022/03/07 12:22:16;;;;;;;3.43;2.60;;;;;;;;;;5096481;28;20198;-51
2022/03/07 12:24:45;;;;;;;6.03;3.10;;;;;;;;;;5096758;28;20202;-54
2022/03/07 12:27:12;;;;;;;5.53;2.50;;;;;;;;;;5094400;28;20195;-52
2022/03/07 12:29:43;;;;;;;3.97;2.70;;;;;;;;;;5094402;28;20226;-50
2022/03/07 12:32:10;;;;;;;8.57;3.37;;;;;;;;;;5098151;28;20210;-52
2022/03/07 12:34:40;;;;;;;5.13;3.10;;;;;;;;;;5096665;28;20269;-55
2022/03/07 12:37:08;;;;;;;6.30;3.23;;;;;;;;;;5094096;28;20693;-54
2022/03/07 12:39:55;;;;;;;5.10;2.33;;;;;;;;;;5096739;28;20218;-55
2022/03/07 12:42:28;;;;;;;6.63;3.60;;;;;;;;;;5095425;28;20187;-53
2022/03/07 12:44:59;;;;;;;6.63;2.90;;;;;;;;;;5096196;28;20211;-55
2022/03/07 12:47:28;;;;;;;9.53;3.70;;;;;;;;;;5093061;28;20183;-51
2022/03/07 12:49:56;;;;;;;6.43;3.77;;;;;;;;;;5096701;28;20221;-51
2022/03/07 12:52:35;;;;;;;6.27;3.63;;;;;;;;;;5096368;28;20187;-52
2022/03/07 12:55:10;;;;;;;7.83;3.67;;;;;;;;;;5096483;28;20233;-53
2022/03/07 12:57:37;;;;;;;6.40;3.67;;;;;;;;;;5092868;28;20214;-52
2022/03/07 13:00:13;;;;;;;4.90;3.10;;;;;;;;;;5091522;28;20227;-51
2022/03/07 13:02:42;;;;;;;4.73;3.33;;;;;;;;;;5118181;22;20230;-50
2022/03/07 13:05:14;;;;;;;9.23;3.93;;;;;;;;;;5058985;28;20270;-47
2022/03/07 13:07:53;;;;;;;7.70;4.00;;;;;;;;;;5039759;28;20208;-46
2022/03/07 13:10:22;;;;;;;9.23;3.90;;;;;;;;;;5064046;28;20214;-49
2022/03/07 13:12:58;;;;;;;6.20;3.53;;;;;;;;;;5097159;28;20678;-46
2022/03/07 13:15:28;;;;;;;5.83;3.90;;;;;;;;;;5097247;28;20617;-49
2022/03/07 13:18:05;;;;;;;7.23;3.43;;;;;;;;;;5079715;28;20560;-49
2022/03/07 13:20:33;;;;;;;5.27;3.33;;;;;;;;;;5097376;28;20610;-48
2022/03/07 13:23:01;;;;;;;7.47;3.80;;;;;;;;;;5079262;28;20287;-48
2022/03/07 13:25:45;;;;;;;6.03;3.97;;;;;;;;;;5075472;28;20726;-48
2022/03/07 13:28:12;;;;;;;8.73;4.47;;;;;;;;;;5072479;28;20222;-47
2022/03/07 13:30:48;;;;;;;5.90;3.50;;;;;;;;;;5075144;28;20199;-50
2022/03/07 13:33:15;;;;;;;8.57;4.07;;;;;;;;;;5067776;28;20195;-50
2022/03/07 13:35:52;;;;;;;10.70;3.37;;;;;;;;;;5055604;28;20693;-53
2022/03/07 13:38:21;;;;;;;8.97;4.07;;;;;;;;;;5057772;28;20236;-49
2022/03/07 13:40:49;;;;;;;6.33;4.23;;;;;;;;;;5073814;28;20232;-49
2022/03/07 13:43:25;;;;;;;7.43;4.20;;;;;;;;;;5073134;28;20594;-48
2022/03/07 13:45:54;;;;;;;7.73;3.70;;;;;;;;;;5072151;28;20225;-49
2022/03/07 13:48:25;;;;;;;5.93;4.27;;;;;;;;;;5074310;28;20669;-51
2022/03/07 13:50:52;;;;;;;10.40;5.30;;;;;;;;;;5074859;28;20247;-47
2022/03/07 13:53:20;;;;;;;7.50;5.13;;;;;;;;;;5075241;28;20272;-50
2022/03/07 13:55:55;;;;;;;9.63;6.30;;;;;;;;;;5073923;28;20229;-46
2022/03/07 13:58:26;;;;;;;5.93;4.13;;;;;;;;;;5070726;28;20242;-49
2022/03/07 14:01:10;;;;;;;9.37;5.33;;;;;;;;;;5071576;28;20665;-47
2022/03/07 14:04:15;;;;;;;10.43;4.60;;;;;;;;;;5072109;28;20254;-49
2022/03/07 14:06:44;;;;;;;11.33;5.93;;;;;;;;;;5073475;28;20672;-48
2022/03/07 14:09:32;;;;;;;10.00;5.43;;;;;;;;;;5071614;28;20215;-47
2022/03/07 14:12:00;;;;;;;13.67;5.70;;;;;;;;;;5073639;28;20673;-48
2022/03/07 14:14:28;;;;;;;13.60;6.30;;;;;;;;;;5072634;28;20541;-47
2022/03/07 14:16:55;;;;;;;11.23;6.47;;;;;;;;;;5071540;28;20588;-50
2022/03/07 14:19:23;;;;;;;11.13;6.37;;;;;;;;;;5068187;28;20310;-52
2022/03/07 14:21:51;;;;;;;10.10;6.27;;;;;;;;;;5075338;28;20215;-49
2022/03/07 14:24:18;;;;;;;10.77;6.43;;;;;;;;;;5074742;28;20251;-48
2022/03/07 14:26:49;;;;;;;10.87;6.37;;;;;;;;;;5074824;28;20697;-48
2022/03/07 14:29:17;;;;;;;11.70;6.03;;;;;;;;;;5074336;28;20257;-46
2022/03/07 14:31:44;;;;;;;7.60;5.53;;;;;;;;;;5074864;28;20245;-47
2022/03/07 14:34:11;;;;;;;7.13;5.07;;;;;;;;;;5073701;28;20254;-48
2022/03/07 14:36:41;;;;;;;8.93;6.07;;;;;;;;;;5073571;28;20637;-47
2022/03/07 14:39:08;;;;;;;10.00;6.87;;;;;;;;;;5073986;28;20263;-48
2022/03/07 14:41:40;;;;;;;9.43;6.17;;;;;;;;;;5074198;28;20219;-48
2022/03/07 14:44:29;;;;;;;9.57;5.93;;;;;;;;;;5073885;28;20296;-47